createdAt,value
2022-10-23T00:00:45.897Z,12.09
2022-10-23T00:04:52.552Z,12.03
2022-10-23T00:08:56.373Z,11.99
2022-10-23T00:13:00.822Z,11.93
2022-10-23T00:17:04.313Z,11.85
2022-10-23T00:21:09.410Z,11.77
2022-10-23T00:25:16.863Z,11.69
2022-10-23T00:29:21.514Z,11.58
2022-10-23T00:33:25.089Z,11.54
2022-10-23T00:37:28.293Z,11.46
2022-10-23T00:41:32.932Z,11.50
2022-10-23T00:45:37.324Z,11.51
2022-10-23T00:49:42.968Z,11.51
2022-10-23T00:54:00.969Z,11.52
2022-10-23T00:58:12.401Z,11.54
2022-10-23T01:02:16.929Z,11.50
2022-10-23T01:10:38.567Z,11.53
2022-10-23T01:14:49.226Z,11.52
2022-10-23T01:19:01.787Z,11.51
2022-10-23T01:23:34.197Z,11.50
2022-10-23T01:27:43.723Z,11.51
2022-10-23T01:31:52.006Z,11.55
2022-10-23T01:36:01.650Z,11.57
2022-10-23T01:40:09.252Z,11.66
2022-10-23T01:44:22.162Z,11.75
2022-10-23T01:48:27.975Z,11.87
2022-10-23T01:52:31.352Z,11.96
2022-10-23T01:56:36.813Z,12.06
2022-10-23T02:00:43.081Z,12.17
2022-10-23T02:04:52.177Z,12.29
2022-10-23T02:08:55.645Z,12.39
2022-10-23T02:13:07.112Z,12.49
2022-10-23T02:17:18.211Z,12.57
2022-10-23T02:21:30.203Z,12.65
2022-10-23T02:25:37.722Z,12.72
2022-10-23T02:29:45.127Z,12.78
2022-10-23T02:33:49.840Z,12.83
2022-10-23T02:37:58.026Z,12.86
2022-10-23T02:42:08.146Z,12.92
2022-10-23T02:46:20.807Z,12.96
2022-10-23T02:50:32.665Z,12.99
2022-10-23T02:54:51.872Z,13.00
2022-10-23T02:59:04.154Z,13.02
2022-10-23T03:03:12.606Z,13.03
2022-10-23T03:07:17.940Z,13.03
2022-10-23T03:11:21.140Z,13.04
2022-10-23T03:15:24.726Z,13.05
2022-10-23T03:19:28.574Z,13.04
2022-10-23T03:23:32.851Z,13.02
2022-10-23T03:27:36.712Z,12.98
2022-10-23T03:31:39.691Z,12.97
2022-10-23T03:35:42.744Z,12.94
2022-10-23T03:39:47.454Z,12.92
2022-10-23T03:43:50.915Z,12.89
2022-10-23T03:47:54.679Z,12.85
2022-10-23T03:51:57.739Z,12.78
2022-10-23T03:56:02.119Z,12.72
2022-10-23T04:00:06.949Z,12.65
2022-10-23T04:04:10.664Z,12.57
2022-10-23T04:08:17.614Z,12.46
2022-10-23T04:12:25.007Z,12.38
2022-10-23T04:16:27.948Z,12.26
2022-10-23T04:20:31.463Z,12.16
2022-10-23T04:24:34.712Z,12.11
2022-10-23T04:28:39.296Z,12.08
2022-10-23T04:32:42.344Z,12.07
2022-10-23T04:36:45.783Z,12.08
2022-10-23T04:40:49.236Z,12.10
2022-10-23T04:44:53.531Z,12.13
2022-10-23T04:48:57.199Z,12.16
2022-10-23T04:53:00.368Z,12.20
2022-10-23T04:57:03.938Z,12.26
2022-10-23T05:01:10.716Z,12.30
2022-10-23T05:05:14.581Z,12.34
2022-10-23T05:09:18.028Z,12.36
2022-10-23T05:13:21.817Z,12.36
2022-10-23T05:17:32.855Z,12.39
2022-10-23T05:21:38.994Z,12.40
2022-10-23T05:25:42.532Z,12.36
2022-10-23T05:29:46.068Z,12.38
2022-10-23T05:33:51.067Z,12.38
2022-10-23T05:37:56.673Z,12.38
2022-10-23T05:41:59.788Z,12.40
2022-10-23T05:46:06.164Z,12.41
2022-10-23T05:50:10.925Z,12.42
2022-10-23T05:54:14.308Z,12.42
2022-10-23T05:58:17.776Z,12.42
2022-10-23T06:02:21.473Z,12.42
2022-10-23T06:06:26.057Z,12.45
2022-10-23T06:10:29.964Z,12.47
2022-10-23T06:14:32.879Z,12.50
2022-10-23T06:18:35.896Z,12.52
2022-10-23T06:22:40.443Z,12.57
2022-10-23T06:26:44.350Z,12.60
2022-10-23T06:30:48.077Z,12.66
2022-10-23T06:34:51.172Z,12.69
2022-10-23T06:38:57.179Z,12.73
2022-10-23T06:43:00.949Z,12.74
2022-10-23T06:47:04.189Z,12.77
2022-10-23T06:51:10.010Z,12.82
2022-10-23T06:55:14.563Z,12.90
2022-10-23T06:59:18.259Z,12.97
2022-10-23T07:03:21.763Z,13.09
2022-10-23T07:11:37.225Z,13.30
2022-10-23T07:15:40.863Z,13.35
2022-10-23T07:19:44.670Z,13.36
2022-10-23T07:23:47.758Z,13.35
2022-10-23T07:27:52.293Z,13.33
2022-10-23T07:31:55.281Z,13.34
2022-10-23T07:36:00.137Z,13.36
2022-10-23T07:40:03.089Z,13.38
2022-10-23T07:44:08.471Z,13.50
2022-10-23T07:48:11.530Z,13.64
2022-10-23T07:52:15.066Z,13.80
2022-10-23T07:56:20.971Z,13.97
2022-10-23T08:00:25.855Z,14.18
2022-10-23T08:04:28.895Z,14.36
2022-10-23T08:08:32.461Z,14.51
2022-10-23T08:12:36.033Z,14.70
2022-10-23T08:16:40.542Z,14.82
2022-10-23T08:20:45.911Z,15.00
2022-10-23T08:24:49.298Z,15.14
2022-10-23T08:28:52.423Z,15.26
2022-10-23T08:32:57.544Z,15.38
2022-10-23T08:37:01.048Z,15.53
2022-10-23T08:41:04.079Z,15.67
2022-10-23T08:45:15.351Z,15.80
2022-10-23T08:49:32.636Z,15.91
2022-10-23T08:53:42.198Z,16.04
2022-10-23T08:57:53.628Z,16.14
2022-10-23T09:02:02.190Z,16.19
2022-10-23T09:06:17.696Z,16.18
2022-10-23T09:10:40.048Z,16.35
2022-10-23T09:15:03.718Z,16.55
2022-10-23T09:19:13.881Z,16.80
2022-10-23T09:23:21.198Z,17.08
2022-10-23T09:27:24.230Z,17.36
2022-10-23T09:31:27.758Z,17.60
2022-10-23T09:35:31.678Z,17.81
2022-10-23T09:39:37.997Z,17.98
2022-10-23T09:43:40.976Z,18.13
2022-10-23T09:47:44.363Z,18.26
2022-10-23T09:51:55.126Z,18.43
2022-10-23T09:56:04.079Z,18.56
2022-10-23T10:00:17.471Z,18.69
2022-10-23T10:04:20.972Z,18.80
2022-10-23T10:08:31.282Z,18.91
2022-10-23T10:12:53.080Z,19.00
2022-10-23T10:17:02.510Z,19.10
2022-10-23T10:21:17.697Z,19.18
2022-10-23T10:25:25.607Z,19.29
2022-10-23T10:29:50.159Z,19.40
2022-10-23T10:34:03.145Z,19.64
2022-10-23T10:38:36.100Z,19.90
2022-10-23T10:42:59.195Z,20.23
2022-10-23T10:47:14.952Z,20.63
2022-10-23T10:51:30.702Z,21.02
2022-10-23T10:55:37.846Z,21.36
2022-10-23T10:59:46.428Z,21.58
2022-10-23T11:03:56.883Z,21.83
2022-10-23T11:08:03.573Z,22.10
2022-10-23T11:12:07.508Z,22.34
2022-10-23T11:16:15.412Z,22.52
2022-10-23T11:20:42.058Z,22.77
2022-10-23T11:25:14.387Z,22.99
2022-10-23T11:29:34.440Z,23.08
2022-10-23T11:34:15.004Z,23.05
2022-10-23T11:38:25.181Z,23.00
2022-10-23T11:42:34.020Z,22.97
2022-10-23T11:46:39.107Z,22.95
2022-10-23T11:50:53.674Z,23.01
2022-10-23T11:55:04.815Z,23.12
2022-10-23T11:59:24.713Z,23.21
2022-10-23T12:03:40.942Z,23.30
2022-10-23T12:07:46.036Z,23.42
2022-10-23T12:12:03.183Z,23.62
2022-10-23T12:16:08.073Z,23.83
2022-10-23T12:20:41.247Z,23.98
2022-10-23T12:24:59.435Z,24.13
2022-10-23T12:29:16.989Z,24.24
2022-10-23T12:33:32.503Z,24.30
2022-10-23T12:37:56.614Z,24.24
2022-10-23T12:42:01.556Z,24.13
2022-10-23T12:46:19.747Z,24.05
2022-10-23T12:50:25.725Z,23.95
2022-10-23T12:54:29.528Z,23.79
2022-10-23T12:58:35.066Z,23.65
2022-10-23T13:02:40.338Z,23.53
2022-10-23T13:06:43.947Z,23.42
2022-10-23T13:10:49.678Z,23.33
2022-10-23T13:15:03.769Z,23.33
2022-10-23T13:19:11.033Z,23.19
2022-10-23T13:23:21.740Z,23.05
2022-10-23T13:27:34.850Z,22.90
2022-10-23T13:31:39.734Z,22.80
2022-10-23T13:35:45.900Z,22.89
2022-10-23T13:39:49.985Z,22.96
2022-10-23T13:43:55.515Z,23.02
2022-10-23T13:47:59.276Z,22.93
2022-10-23T13:52:04.796Z,22.82
2022-10-23T13:56:09.438Z,22.74
2022-10-23T14:00:15.748Z,22.67
2022-10-23T14:04:19.870Z,22.68
2022-10-23T14:08:25.830Z,22.76
2022-10-23T14:12:29.450Z,22.72
2022-10-23T14:16:33.357Z,22.67
2022-10-23T14:20:38.833Z,22.61
2022-10-23T14:24:44.424Z,22.55
2022-10-23T14:28:59.539Z,22.47
2022-10-23T14:33:07.790Z,22.36
2022-10-23T14:37:12.100Z,22.36
2022-10-23T14:41:24.827Z,22.46
2022-10-23T14:45:28.239Z,22.63
2022-10-23T14:49:32.001Z,22.78
2022-10-23T14:53:37.512Z,22.95
2022-10-23T14:57:44.043Z,23.10
2022-10-23T15:01:49.165Z,23.14
2022-10-23T15:05:53.202Z,23.09
2022-10-23T15:09:57.526Z,22.91
2022-10-23T15:14:02.832Z,22.65
2022-10-23T15:18:06.868Z,22.35
2022-10-23T15:22:12.078Z,22.06
2022-10-23T15:26:31.428Z,21.73
2022-10-23T15:31:06.573Z,21.33
2022-10-23T15:35:10.801Z,21.00
2022-10-23T15:39:16.856Z,20.63
2022-10-23T15:43:24.389Z,20.26
2022-10-23T15:47:30.392Z,19.96
2022-10-23T15:51:41.545Z,19.74
2022-10-23T15:59:57.426Z,19.22
2022-10-23T16:04:01.938Z,19.03
2022-10-23T16:08:08.335Z,18.87
2022-10-23T16:12:11.952Z,18.72
2022-10-23T16:16:15.638Z,18.58
2022-10-23T16:20:21.606Z,18.48
2022-10-23T16:24:26.414Z,18.34
2022-10-23T16:28:29.735Z,18.22
2022-10-23T16:32:32.752Z,18.11
2022-10-23T16:36:39.395Z,18.05
2022-10-23T16:40:43.106Z,17.99
2022-10-23T16:44:46.422Z,17.96
2022-10-23T16:48:51.355Z,17.92
2022-10-23T16:52:56.354Z,17.89
2022-10-23T16:57:00.303Z,17.81
2022-10-23T17:01:06.294Z,17.71
2022-10-23T17:05:09.711Z,17.58
2022-10-23T17:09:15.925Z,17.47
2022-10-23T17:13:19.765Z,17.34
2022-10-23T17:17:23.121Z,17.23
2022-10-23T17:21:26.631Z,17.12
2022-10-23T17:25:32.174Z,17.03
2022-10-23T17:29:35.398Z,16.93
2022-10-23T17:33:38.877Z,16.86
2022-10-23T17:37:42.274Z,16.81
2022-10-23T17:41:47.823Z,16.76
2022-10-23T17:45:51.825Z,16.69
2022-10-23T17:49:54.925Z,16.60
2022-10-23T17:54:02.180Z,16.51
2022-10-23T17:58:08.042Z,16.42
2022-10-23T18:02:16.953Z,16.28
2022-10-23T18:06:25.766Z,16.21
2022-10-23T18:10:32.215Z,16.13
2022-10-23T18:14:45.268Z,16.05
2022-10-23T18:18:52.644Z,16.02
2022-10-23T18:22:56.857Z,15.98
2022-10-23T18:27:00.574Z,15.94
2022-10-23T18:31:09.418Z,15.91
2022-10-23T18:35:12.844Z,15.86
2022-10-23T18:39:18.639Z,15.83
2022-10-23T18:43:42.055Z,15.78
2022-10-23T18:47:46.678Z,15.79
2022-10-23T18:51:51.147Z,15.71
2022-10-23T18:55:54.589Z,15.68
2022-10-23T18:59:58.487Z,15.62
2022-10-23T19:04:03.575Z,15.58
2022-10-23T19:12:17.978Z,15.50
2022-10-23T19:16:24.903Z,15.46
2022-10-23T19:20:30.566Z,15.41
2022-10-23T19:24:39.843Z,15.36
2022-10-23T19:28:47.318Z,15.32
2022-10-23T19:32:51.877Z,15.28
2022-10-23T19:36:56.645Z,15.25
2022-10-23T19:41:00.184Z,15.23
2022-10-23T19:45:03.401Z,15.20
2022-10-23T19:49:09.417Z,15.16
2022-10-23T19:53:14.057Z,15.12
2022-10-23T19:57:19.318Z,15.09
2022-10-23T20:01:27.121Z,15.07
2022-10-23T20:05:30.762Z,15.04
2022-10-23T20:09:35.708Z,15.02
2022-10-23T20:13:38.825Z,14.99
2022-10-23T20:17:41.817Z,14.95
2022-10-23T20:21:47.731Z,14.93
2022-10-23T20:25:52.197Z,14.89
2022-10-23T20:29:55.625Z,14.84
2022-10-23T20:33:59.044Z,14.80
2022-10-23T20:38:02.517Z,14.76
2022-10-23T20:42:07.433Z,14.74
2022-10-23T20:46:12.433Z,14.70
2022-10-23T20:50:16.246Z,14.67
2022-10-23T20:54:19.721Z,14.63
2022-10-23T20:58:24.568Z,14.61
2022-10-23T21:02:27.851Z,14.58
2022-10-23T21:06:45.670Z,14.55
2022-10-23T21:10:55.232Z,14.52
2022-10-23T21:14:59.901Z,14.47
2022-10-23T21:19:05.582Z,14.42
2022-10-23T21:23:09.086Z,14.38
2022-10-23T21:27:12.848Z,14.34
2022-10-23T21:31:21.189Z,14.32
2022-10-23T21:35:26.533Z,14.27
2022-10-23T21:39:32.698Z,14.26
2022-10-23T21:43:35.964Z,14.26
2022-10-23T21:47:40.583Z,14.28
2022-10-23T21:51:44.418Z,14.28
2022-10-23T21:55:47.759Z,14.31
2022-10-23T21:59:51.448Z,14.35
2022-10-23T22:03:56.826Z,14.41
2022-10-23T22:08:00.208Z,14.45
2022-10-23T22:12:03.673Z,14.47
2022-10-23T22:16:07.584Z,14.55
2022-10-23T22:20:12.440Z,14.63
2022-10-23T22:24:16.253Z,14.67
2022-10-23T22:28:19.631Z,14.68
2022-10-23T22:32:23.130Z,14.78
2022-10-23T22:36:28.431Z,14.83
2022-10-23T22:40:31.563Z,14.84
2022-10-23T22:44:35.042Z,14.93
2022-10-23T22:48:39.255Z,14.97
2022-10-23T22:52:44.226Z,14.97
2022-10-23T22:56:47.521Z,15.05
2022-10-23T23:00:52.183Z,15.07
2022-10-23T23:04:55.845Z,15.09
2022-10-23T23:09:01.170Z,15.12
2022-10-23T23:13:04.141Z,15.14
2022-10-23T23:17:08.820Z,15.15
2022-10-23T23:21:12.248Z,15.17
2022-10-23T23:25:16.884Z,15.19
2022-10-23T23:29:20.854Z,15.18
2022-10-23T23:33:24.418Z,15.19
2022-10-23T23:37:27.978Z,15.18
2022-10-23T23:41:32.751Z,15.19
2022-10-23T23:45:35.818Z,15.19
2022-10-23T23:49:39.249Z,15.08
2022-10-23T23:53:42.782Z,15.15
2022-10-23T23:57:47.577Z,15.15
